createdAt,value
2019-02-26T00:01:03.928Z,99.90
2019-02-26T00:02:09.043Z,99.90
2019-02-26T00:03:14.418Z,99.90
2019-02-26T00:04:21.051Z,99.90
2019-02-26T00:05:28.422Z,99.90
2019-02-26T00:06:33.646Z,99.90
2019-02-26T00:07:39.060Z,99.90
2019-02-26T00:08:49.204Z,99.90
2019-02-26T00:09:55.055Z,99.90
2019-02-26T00:11:01.252Z,99.90
2019-02-26T00:12:07.739Z,99.90
2019-02-26T00:13:13.548Z,99.90
2019-02-26T00:14:20.384Z,99.90
2019-02-26T00:15:26.066Z,99.90
2019-02-26T00:16:35.173Z,99.90
2019-02-26T00:17:40.533Z,99.90
2019-02-26T00:18:45.176Z,99.90
2019-02-26T00:19:50.812Z,99.90
2019-02-26T00:20:56.718Z,99.90
2019-02-26T00:22:03.007Z,99.90
2019-02-26T00:23:08.204Z,99.90
2019-02-26T00:24:14.608Z,99.90
2019-02-26T00:25:20.826Z,99.90
2019-02-26T00:26:26.177Z,99.90
2019-02-26T00:27:32.917Z,99.90
2019-02-26T00:28:39.111Z,99.90
2019-02-26T00:29:46.365Z,99.90
2019-02-26T00:30:52.693Z,99.90
2019-02-26T00:31:57.966Z,99.90
2019-02-26T00:33:05.157Z,99.90
2019-02-26T00:34:10.835Z,99.90
2019-02-26T00:35:19.047Z,99.90
2019-02-26T00:36:24.042Z,99.90
2019-02-26T00:37:30.680Z,99.90
2019-02-26T00:38:37.718Z,99.90
2019-02-26T00:39:45.353Z,99.90
2019-02-26T00:40:51.955Z,99.90
2019-02-26T00:41:58.123Z,99.90
2019-02-26T00:43:04.882Z,99.90
2019-02-26T00:44:10.888Z,99.90
2019-02-26T00:45:16.157Z,99.90
2019-02-26T00:46:24.111Z,99.90
2019-02-26T00:47:31.815Z,99.90
2019-02-26T00:48:35.982Z,99.90
2019-02-26T00:49:43.991Z,99.90
2019-02-26T00:50:49.188Z,99.90
2019-02-26T00:51:54.503Z,99.90
2019-02-26T00:53:01.608Z,99.90
2019-02-26T00:54:06.577Z,99.90
2019-02-26T00:55:11.992Z,99.90
2019-02-26T00:56:17.256Z,99.90
2019-02-26T00:57:22.653Z,99.90
2019-02-26T00:58:27.990Z,99.90
2019-02-26T00:59:36.340Z,99.90
2019-02-26T01:00:40.171Z,99.90
2019-02-26T01:01:47.913Z,99.90
2019-02-26T01:02:52.217Z,99.90
2019-02-26T01:03:57.592Z,99.90
2019-02-26T01:05:04.117Z,99.90
2019-02-26T01:06:09.704Z,99.90
2019-02-26T01:07:15.084Z,99.90
2019-02-26T01:08:20.396Z,99.90
2019-02-26T01:09:27.256Z,99.90
2019-02-26T01:10:34.461Z,99.90
2019-02-26T01:11:39.464Z,99.90
2019-02-26T01:12:44.705Z,99.90
2019-02-26T01:13:50.850Z,99.90
2019-02-26T01:14:56.842Z,99.90
2019-02-26T01:16:02.155Z,99.90
2019-02-26T01:17:08.214Z,99.90
2019-02-26T01:18:14.280Z,99.90
2019-02-26T01:19:19.919Z,99.90
2019-02-26T01:20:27.479Z,99.90
2019-02-26T01:21:34.156Z,99.90
2019-02-26T01:22:40.326Z,99.90
2019-02-26T01:23:47.021Z,99.90
2019-02-26T01:24:54.142Z,99.90
2019-02-26T01:25:59.243Z,99.90
2019-02-26T01:27:04.428Z,99.90
2019-02-26T01:28:09.761Z,99.90
2019-02-26T01:29:18.602Z,99.90
2019-02-26T01:30:25.856Z,99.90
2019-02-26T01:31:29.781Z,99.90
2019-02-26T01:32:35.786Z,99.90
2019-02-26T01:33:41.074Z,99.90
2019-02-26T01:34:47.801Z,99.90
2019-02-26T01:35:55.370Z,99.90
2019-02-26T01:37:03.044Z,99.90
2019-02-26T01:38:08.193Z,99.90
2019-02-26T01:39:13.802Z,99.90
2019-02-26T01:40:21.659Z,99.90
2019-02-26T01:41:27.370Z,99.90
2019-02-26T01:42:32.689Z,99.90
2019-02-26T01:43:37.980Z,99.90
2019-02-26T01:44:44.517Z,99.90
2019-02-26T01:45:50.838Z,99.90
2019-02-26T01:46:58.287Z,99.90
2019-02-26T01:48:04.086Z,99.90
2019-02-26T01:49:10.445Z,99.90
2019-02-26T01:50:16.253Z,99.90
2019-02-26T01:51:22.402Z,99.90
2019-02-26T01:52:28.613Z,99.90
2019-02-26T01:53:33.822Z,99.90
2019-02-26T01:54:39.590Z,99.90
2019-02-26T01:55:45.945Z,99.90
2019-02-26T01:56:53.416Z,99.90
2019-02-26T01:57:59.313Z,99.90
2019-02-26T01:59:04.535Z,99.90
2019-02-26T02:00:14.274Z,99.90
2019-02-26T02:01:21.411Z,99.90
2019-02-26T02:02:28.269Z,99.90
2019-02-26T02:03:33.483Z,99.90
2019-02-26T02:04:39.375Z,99.90
2019-02-26T02:05:46.259Z,99.90
2019-02-26T02:06:54.305Z,99.90
2019-02-26T02:07:59.552Z,99.90
2019-02-26T02:09:09.283Z,99.90
2019-02-26T02:10:15.275Z,99.90
2019-02-26T02:11:23.432Z,99.90
2019-02-26T02:12:29.483Z,99.90
2019-02-26T02:13:35.883Z,99.90
2019-02-26T02:14:42.214Z,99.90
2019-02-26T02:15:47.502Z,99.90
2019-02-26T02:16:52.730Z,99.90
2019-02-26T02:17:59.545Z,99.90
2019-02-26T02:19:04.907Z,99.90
2019-02-26T02:20:13.218Z,99.90
2019-02-26T02:21:18.214Z,99.90
2019-02-26T02:22:23.414Z,99.90
2019-02-26T02:23:30.380Z,99.90
2019-02-26T02:24:39.256Z,99.90
2019-02-26T02:25:45.566Z,99.90
2019-02-26T02:26:52.690Z,99.90
2019-02-26T02:27:59.335Z,99.90
2019-02-26T02:29:04.308Z,99.90
2019-02-26T02:30:18.521Z,99.90
2019-02-26T02:31:21.942Z,99.90
2019-02-26T02:32:28.746Z,99.90
2019-02-26T02:33:35.007Z,99.90
2019-02-26T02:34:42.875Z,99.90
2019-02-26T02:35:47.014Z,99.90
2019-02-26T02:36:52.257Z,99.90
2019-02-26T02:38:00.124Z,99.90
2019-02-26T02:39:10.347Z,99.90
2019-02-26T02:40:13.019Z,99.90
2019-02-26T02:41:18.198Z,99.90
2019-02-26T02:42:23.490Z,99.90
2019-02-26T02:43:28.761Z,99.90
2019-02-26T02:44:34.108Z,99.90
2019-02-26T02:45:39.268Z,99.90
2019-02-26T02:46:46.539Z,99.90
2019-02-26T02:47:54.861Z,99.90
2019-02-26T02:48:58.506Z,99.90
2019-02-26T02:50:05.726Z,99.90
2019-02-26T02:51:13.744Z,99.90
2019-02-26T02:52:17.757Z,99.90
2019-02-26T02:53:23.920Z,99.90
2019-02-26T02:54:31.070Z,99.90
2019-02-26T02:55:37.918Z,99.90
2019-02-26T02:56:44.340Z,99.90
2019-02-26T02:57:54.605Z,99.90
2019-02-26T02:58:57.664Z,99.90
2019-02-26T03:00:05.453Z,99.90
2019-02-26T03:01:10.449Z,99.90
2019-02-26T03:02:17.614Z,99.90
2019-02-26T03:03:22.612Z,99.90
2019-02-26T03:04:29.197Z,99.90
2019-02-26T03:05:37.378Z,99.90
2019-02-26T03:06:41.481Z,99.90
2019-02-26T03:07:50.754Z,99.90
2019-02-26T03:08:53.609Z,99.90
2019-02-26T03:10:01.370Z,99.90
2019-02-26T03:11:07.521Z,99.90
2019-02-26T03:12:12.800Z,99.90
2019-02-26T03:13:20.158Z,99.90
2019-02-26T03:14:25.063Z,99.90
2019-02-26T03:15:33.017Z,99.90
2019-02-26T03:16:39.052Z,99.90
2019-02-26T03:17:44.106Z,99.90
2019-02-26T03:18:49.388Z,99.90
2019-02-26T03:19:56.035Z,99.90
2019-02-26T03:21:04.362Z,99.90
2019-02-26T03:22:09.936Z,99.90
2019-02-26T03:23:19.530Z,99.90
2019-02-26T03:24:25.088Z,99.90
2019-02-26T03:25:29.326Z,99.90
2019-02-26T03:26:36.103Z,99.90
2019-02-26T03:27:42.644Z,99.90
2019-02-26T03:28:49.044Z,99.90
2019-02-26T03:29:56.239Z,99.90
2019-02-26T03:31:01.699Z,99.90
2019-02-26T03:32:06.970Z,99.90
2019-02-26T03:33:12.317Z,99.90
2019-02-26T03:34:24.211Z,99.90
2019-02-26T03:35:24.698Z,99.90
2019-02-26T03:36:31.624Z,99.90
2019-02-26T03:37:36.839Z,99.90
2019-02-26T03:38:44.032Z,99.90
2019-02-26T03:39:49.086Z,99.90
2019-02-26T03:40:57.467Z,99.90
2019-02-26T03:42:01.373Z,99.90
2019-02-26T03:43:07.769Z,99.90
2019-02-26T03:44:13.491Z,99.90
2019-02-26T03:45:23.731Z,99.90
2019-02-26T03:46:25.580Z,99.90
2019-02-26T03:47:30.932Z,99.90
2019-02-26T03:48:36.164Z,99.90
2019-02-26T03:49:42.272Z,99.90
2019-02-26T03:50:47.811Z,99.90
2019-02-26T03:51:53.151Z,99.90
2019-02-26T03:52:58.453Z,99.90
2019-02-26T03:54:03.676Z,99.90
2019-02-26T03:55:11.481Z,99.90
2019-02-26T03:56:18.274Z,99.90
2019-02-26T03:57:24.798Z,99.90
2019-02-26T03:58:29.847Z,99.90
2019-02-26T03:59:35.147Z,99.90
2019-02-26T04:00:41.746Z,99.90
2019-02-26T04:01:47.373Z,99.90
2019-02-26T04:02:52.577Z,99.90
2019-02-26T04:03:59.720Z,99.90
2019-02-26T04:05:08.589Z,99.90
2019-02-26T04:06:12.674Z,99.90
2019-02-26T04:07:18.288Z,99.90
2019-02-26T04:08:24.342Z,99.90
2019-02-26T04:09:30.519Z,99.90
2019-02-26T04:10:35.792Z,99.90
2019-02-26T04:11:45.576Z,99.90
2019-02-26T04:12:51.817Z,99.90
2019-02-26T04:13:56.651Z,99.90
2019-02-26T04:15:01.757Z,99.90
2019-02-26T04:16:07.133Z,99.90
2019-02-26T04:17:12.367Z,99.90
2019-02-26T04:18:17.673Z,99.90
2019-02-26T04:19:26.110Z,99.90
2019-02-26T04:20:29.848Z,99.90
2019-02-26T04:22:12.619Z,99.90
2019-02-26T04:23:19.914Z,99.90
2019-02-26T04:24:26.002Z,99.90
2019-02-26T04:25:48.603Z,99.90
2019-02-26T04:27:24.717Z,99.90
2019-02-26T04:28:44.980Z,99.90
2019-02-26T04:30:01.502Z,99.90
2019-02-26T04:31:57.135Z,99.90
2019-02-26T04:33:19.641Z,99.90
2019-02-26T04:34:57.635Z,99.90
2019-02-26T04:36:39.685Z,99.90
2019-02-26T04:38:32.509Z,99.90
2019-02-26T04:39:51.142Z,99.90
2019-02-26T04:41:26.800Z,99.90
2019-02-26T04:43:17.031Z,99.90
2019-02-26T04:45:09.698Z,99.90
2019-02-26T04:46:46.764Z,99.90
2019-02-26T04:47:54.932Z,99.90
2019-02-26T04:48:59.806Z,99.90
2019-02-26T04:50:08.982Z,99.90
2019-02-26T04:51:13.296Z,99.90
2019-02-26T04:52:20.932Z,99.90
2019-02-26T04:53:28.639Z,99.90
2019-02-26T04:54:33.712Z,99.90
2019-02-26T04:55:41.550Z,99.90
2019-02-26T04:56:48.026Z,99.90
2019-02-26T04:57:55.282Z,99.90
2019-02-26T04:59:03.348Z,99.90
2019-02-26T05:00:10.407Z,99.90
2019-02-26T05:01:16.403Z,99.90
2019-02-26T05:02:21.280Z,99.90
2019-02-26T05:03:26.559Z,99.90
2019-02-26T05:04:33.832Z,99.90
2019-02-26T05:05:38.791Z,99.90
2019-02-26T05:06:44.072Z,99.90
2019-02-26T05:07:50.004Z,99.90
2019-02-26T05:08:56.878Z,99.90
2019-02-26T05:10:02.629Z,99.90
2019-02-26T05:11:08.027Z,99.90
2019-02-26T05:12:13.316Z,99.90
2019-02-26T05:13:22.111Z,99.90
2019-02-26T05:14:27.011Z,99.90
2019-02-26T05:15:33.252Z,99.90
2019-02-26T05:16:40.321Z,99.90
2019-02-26T05:17:45.794Z,99.90
2019-02-26T05:18:51.677Z,99.90
2019-02-26T05:19:57.960Z,99.90
2019-02-26T05:21:05.219Z,99.90
2019-02-26T05:22:10.109Z,99.90
2019-02-26T05:23:15.455Z,99.90
2019-02-26T05:24:21.809Z,99.90
2019-02-26T05:25:27.801Z,99.90
2019-02-26T05:26:33.028Z,99.90
2019-02-26T05:27:39.976Z,99.90
2019-02-26T05:28:46.923Z,99.90
2019-02-26T05:29:54.654Z,99.90
2019-02-26T05:30:58.973Z,99.90
2019-02-26T05:32:06.705Z,99.90
2019-02-26T05:33:11.124Z,99.90
2019-02-26T05:34:18.182Z,99.90
2019-02-26T05:35:25.234Z,99.90
2019-02-26T05:36:31.714Z,99.90
2019-02-26T05:37:40.358Z,99.90
2019-02-26T05:38:44.250Z,99.90
2019-02-26T05:39:51.669Z,99.90
2019-02-26T05:40:56.266Z,99.90
2019-02-26T05:42:04.066Z,99.90
2019-02-26T05:43:08.242Z,99.90
2019-02-26T05:44:13.568Z,99.90
2019-02-26T05:45:18.839Z,99.90
2019-02-26T05:46:28.925Z,99.90
2019-02-26T05:47:33.702Z,99.90
2019-02-26T05:48:39.953Z,99.90
2019-02-26T05:49:46.106Z,99.90
2019-02-26T05:50:51.376Z,99.90
2019-02-26T05:51:58.667Z,99.90
2019-02-26T05:53:05.533Z,99.90
2019-02-26T05:54:12.191Z,99.90
2019-02-26T05:55:19.729Z,99.90
2019-02-26T05:56:24.361Z,99.90
2019-02-26T05:57:32.520Z,99.90
2019-02-26T05:58:38.746Z,99.90
2019-02-26T05:59:44.779Z,99.90
2019-02-26T06:00:50.069Z,99.90
2019-02-26T06:01:55.975Z,99.90
2019-02-26T06:03:03.632Z,99.90
2019-02-26T06:04:10.093Z,99.90
2019-02-26T06:05:18.391Z,99.90
2019-02-26T06:06:25.734Z,99.90
2019-02-26T06:07:33.626Z,99.90
2019-02-26T06:08:39.272Z,99.90
2019-02-26T06:09:45.366Z,99.90
2019-02-26T06:10:51.663Z,99.90
2019-02-26T06:11:56.943Z,99.90
2019-02-26T06:13:04.280Z,99.90
2019-02-26T06:14:11.971Z,99.90
2019-02-26T06:15:16.126Z,99.90
2019-02-26T06:16:21.833Z,99.90
2019-02-26T06:17:28.683Z,99.90
2019-02-26T06:18:33.916Z,99.90
2019-02-26T06:19:47.340Z,99.90
2019-02-26T06:20:53.526Z,99.90
2019-02-26T06:21:59.589Z,99.90
2019-02-26T06:23:04.886Z,99.90
2019-02-26T06:24:10.194Z,99.90
2019-02-26T06:25:22.879Z,99.90
2019-02-26T06:26:28.018Z,99.90
2019-02-26T06:27:30.503Z,99.90
2019-02-26T06:28:38.398Z,99.90
2019-02-26T06:29:42.691Z,99.90
2019-02-26T06:30:47.897Z,99.90
2019-02-26T06:31:53.824Z,99.90
2019-02-26T06:33:02.079Z,99.90
2019-02-26T06:34:08.682Z,99.90
2019-02-26T06:35:16.550Z,99.90
2019-02-26T06:36:23.465Z,99.90
2019-02-26T06:37:30.812Z,99.90
2019-02-26T06:38:35.713Z,99.90
2019-02-26T06:39:41.009Z,99.90
2019-02-26T06:40:48.842Z,99.90
2019-02-26T06:41:53.209Z,99.90
2019-02-26T06:42:58.444Z,99.90
2019-02-26T06:44:03.679Z,99.90
2019-02-26T06:45:11.523Z,99.90
2019-02-26T06:46:17.625Z,99.90
2019-02-26T06:47:25.446Z,99.90
2019-02-26T06:48:30.579Z,99.90
2019-02-26T06:49:36.644Z,99.90
2019-02-26T06:50:43.487Z,99.90
2019-02-26T06:51:49.820Z,99.90
2019-02-26T06:52:55.668Z,99.90
2019-02-26T06:54:01.159Z,99.90
2019-02-26T06:55:08.668Z,99.90
2019-02-26T06:56:16.039Z,99.90
2019-02-26T06:57:20.731Z,99.90
2019-02-26T06:58:29.682Z,99.90
2019-02-26T06:59:36.887Z,99.90
2019-02-26T07:00:43.681Z,99.90
2019-02-26T07:01:49.631Z,99.90
2019-02-26T07:02:54.850Z,99.90
2019-02-26T07:04:00.012Z,99.90
2019-02-26T07:05:06.380Z,99.90
2019-02-26T07:06:11.698Z,99.90
2019-02-26T07:07:16.978Z,99.90
2019-02-26T07:08:24.192Z,99.90
2019-02-26T07:09:29.103Z,99.90
2019-02-26T07:10:34.403Z,99.90
2019-02-26T07:11:39.645Z,99.90
2019-02-26T07:12:45.424Z,99.90
2019-02-26T07:13:53.660Z,99.90
2019-02-26T07:14:58.626Z,99.90
2019-02-26T07:16:05.158Z,99.90
2019-02-26T07:17:10.575Z,99.90
2019-02-26T07:18:17.702Z,99.90
2019-02-26T07:19:22.830Z,99.90
2019-02-26T07:20:34.033Z,99.90
2019-02-26T07:21:37.992Z,99.90
2019-02-26T07:22:44.100Z,99.90
2019-02-26T07:23:51.640Z,99.90
2019-02-26T07:24:56.978Z,99.90
2019-02-26T07:26:02.134Z,99.90
2019-02-26T07:27:09.190Z,99.90
2019-02-26T07:28:17.453Z,99.90
2019-02-26T07:29:22.343Z,99.90
2019-02-26T07:30:27.623Z,99.90
2019-02-26T07:31:35.097Z,99.90
2019-02-26T07:32:40.775Z,99.90
2019-02-26T07:33:46.880Z,99.90
2019-02-26T07:34:53.242Z,99.90
2019-02-26T07:35:59.312Z,99.90
2019-02-26T07:37:06.430Z,99.90
2019-02-26T07:38:12.233Z,99.90
2019-02-26T07:39:18.300Z,99.90
2019-02-26T07:40:24.437Z,99.90
2019-02-26T07:41:30.291Z,99.90
2019-02-26T07:42:37.265Z,99.90
2019-02-26T07:43:44.627Z,99.90
2019-02-26T07:44:49.571Z,99.90
2019-02-26T07:45:54.963Z,99.90
2019-02-26T07:47:00.810Z,99.90
2019-02-26T07:48:07.262Z,99.90
2019-02-26T07:49:12.547Z,99.90
2019-02-26T07:50:18.028Z,99.90
2019-02-26T07:51:23.397Z,99.90
2019-02-26T07:52:30.683Z,99.90
2019-02-26T07:53:35.820Z,99.90
2019-02-26T07:54:42.788Z,99.90
2019-02-26T07:55:48.098Z,99.90
2019-02-26T07:56:55.123Z,99.90
2019-02-26T07:58:00.550Z,99.90
2019-02-26T07:59:07.823Z,99.90
2019-02-26T08:00:14.998Z,99.90
2019-02-26T08:01:20.311Z,99.90
2019-02-26T08:02:27.443Z,99.90
2019-02-26T08:03:32.504Z,99.90
2019-02-26T08:04:38.927Z,99.90
2019-02-26T08:05:44.636Z,99.90
2019-02-26T08:06:51.835Z,99.90
2019-02-26T08:07:58.346Z,99.90
2019-02-26T08:09:08.718Z,99.90
2019-02-26T08:10:16.784Z,99.90
2019-02-26T08:11:22.126Z,99.90
2019-02-26T08:12:27.310Z,99.90
2019-02-26T08:13:33.998Z,99.90
2019-02-26T08:14:42.756Z,99.90
2019-02-26T08:15:46.647Z,99.90
2019-02-26T08:16:54.215Z,99.90
2019-02-26T08:18:01.300Z,99.90
2019-02-26T08:19:05.744Z,99.90
2019-02-26T08:20:15.025Z,99.90
2019-02-26T08:21:22.191Z,99.90
2019-02-26T08:22:29.326Z,99.90
2019-02-26T08:23:34.301Z,99.90
2019-02-26T08:24:39.630Z,99.90
2019-02-26T08:25:44.933Z,99.90
2019-02-26T08:26:51.210Z,99.90
2019-02-26T08:27:58.759Z,99.90
2019-02-26T08:29:05.684Z,99.90
2019-02-26T08:30:14.758Z,99.90
2019-02-26T08:31:21.406Z,99.90
2019-02-26T08:32:28.630Z,99.90
2019-02-26T08:33:50.943Z,99.90
2019-02-26T08:34:48.644Z,99.90
2019-02-26T08:36:09.282Z,99.90
2019-02-26T08:37:20.896Z,99.90
2019-02-26T08:38:31.175Z,99.90
2019-02-26T08:40:02.398Z,99.90
2019-02-26T08:41:20.780Z,99.90
2019-02-26T08:42:47.920Z,99.90
2019-02-26T08:44:22.414Z,99.90
2019-02-26T08:45:39.888Z,99.90
2019-02-26T08:47:08.757Z,99.90
2019-02-26T08:48:48.330Z,99.90
2019-02-26T08:50:07.360Z,99.90
2019-02-26T08:51:45.923Z,99.90
2019-02-26T08:52:58.429Z,99.90
2019-02-26T08:54:20.545Z,99.90
2019-02-26T08:55:24.610Z,99.90
2019-02-26T08:56:28.275Z,99.90
2019-02-26T08:57:38.387Z,99.90
2019-02-26T08:58:51.377Z,99.90
2019-02-26T08:59:59.518Z,99.90
2019-02-26T09:01:05.235Z,99.90
2019-02-26T09:02:12.436Z,99.90
2019-02-26T09:03:20.428Z,99.90
2019-02-26T09:04:28.250Z,99.90
2019-02-26T09:05:42.997Z,99.90
2019-02-26T09:06:57.585Z,99.90
2019-02-26T09:08:14.013Z,99.90
2019-02-26T09:09:25.336Z,99.90
2019-02-26T09:10:36.442Z,99.90
2019-02-26T09:11:44.665Z,99.90
2019-02-26T09:13:06.330Z,99.90
2019-02-26T09:14:23.845Z,99.90
2019-02-26T09:15:52.103Z,99.90
2019-02-26T09:16:59.618Z,99.90
2019-02-26T09:18:12.061Z,99.90
2019-02-26T09:19:17.950Z,99.90
2019-02-26T09:20:24.984Z,99.90
2019-02-26T09:21:41.861Z,99.90
2019-02-26T09:23:03.582Z,99.90
2019-02-26T09:24:16.831Z,99.90
2019-02-26T09:25:35.087Z,99.90
2019-02-26T09:26:54.924Z,99.90
2019-02-26T09:28:12.632Z,99.90
2019-02-26T09:29:28.684Z,99.90
2019-02-26T09:30:40.797Z,99.90
2019-02-26T09:32:09.297Z,99.90
2019-02-26T09:33:14.204Z,99.90
2019-02-26T09:34:31.656Z,99.90
2019-02-26T09:35:52.210Z,99.40
2019-02-26T09:37:08.459Z,99.80
2019-02-26T09:38:36.389Z,99.90
2019-02-26T09:39:59.217Z,99.90
2019-02-26T09:41:18.876Z,99.00
2019-02-26T09:42:39.662Z,98.30
2019-02-26T09:44:06.571Z,97.40
2019-02-26T09:45:29.120Z,97.00
2019-02-26T09:46:57.818Z,97.70
2019-02-26T09:48:10.409Z,95.40
2019-02-26T09:49:35.149Z,94.40
2019-02-26T09:50:54.953Z,94.60
2019-02-26T09:52:13.091Z,94.20
2019-02-26T09:53:33.068Z,93.80
2019-02-26T09:54:42.716Z,94.00
2019-02-26T09:55:53.820Z,94.50
2019-02-26T09:57:05.256Z,93.60
2019-02-26T09:58:23.498Z,92.70
2019-02-26T09:59:40.018Z,92.60
2019-02-26T10:00:56.797Z,91.30
2019-02-26T10:02:24.126Z,90.00
2019-02-26T10:03:38.563Z,89.60
2019-02-26T10:04:49.535Z,89.70
2019-02-26T10:06:02.391Z,87.20
2019-02-26T10:07:16.314Z,85.90
2019-02-26T10:08:28.082Z,86.20
2019-02-26T10:09:45.920Z,88.20
2019-02-26T10:11:02.692Z,87.30
2019-02-26T10:12:20.774Z,84.70
2019-02-26T10:13:47.248Z,85.10
2019-02-26T10:15:06.762Z,84.80
2019-02-26T10:16:31.363Z,86.60
2019-02-26T10:17:45.193Z,84.90
2019-02-26T10:19:00.318Z,83.80
2019-02-26T10:20:20.024Z,84.50
2019-02-26T10:21:34.783Z,83.00
2019-02-26T10:22:49.081Z,82.90
2019-02-26T10:23:59.429Z,82.90
2019-02-26T10:25:07.308Z,82.10
2019-02-26T10:26:26.116Z,81.90
2019-02-26T10:27:33.714Z,80.40
2019-02-26T10:28:42.752Z,80.20
2019-02-26T10:29:50.005Z,81.30
2019-02-26T10:30:57.482Z,83.30
2019-02-26T10:32:11.791Z,82.20
2019-02-26T10:33:21.180Z,80.40
2019-02-26T10:34:32.474Z,81.30
2019-02-26T10:35:39.635Z,80.80
2019-02-26T10:36:51.764Z,81.70
2019-02-26T10:38:02.669Z,80.60
2019-02-26T10:39:12.800Z,80.20
2019-02-26T10:40:34.313Z,80.10
2019-02-26T10:41:34.870Z,78.10
2019-02-26T10:42:48.609Z,77.00
2019-02-26T10:43:59.466Z,76.70
2019-02-26T10:45:07.588Z,76.40
2019-02-26T10:46:17.805Z,74.70
2019-02-26T10:47:27.506Z,73.90
2019-02-26T10:48:37.966Z,74.60
2019-02-26T10:49:44.523Z,71.50
2019-02-26T10:50:54.986Z,71.80
2019-02-26T10:52:10.852Z,72.00
2019-02-26T10:53:24.151Z,71.40
2019-02-26T10:54:39.508Z,70.00
2019-02-26T10:55:43.133Z,69.40
2019-02-26T10:56:49.806Z,69.00
2019-02-26T10:57:55.988Z,68.40
2019-02-26T10:59:06.726Z,66.00
2019-02-26T11:00:18.470Z,67.40
2019-02-26T11:01:33.657Z,65.90
2019-02-26T11:02:40.591Z,64.00
2019-02-26T11:03:47.219Z,62.50
2019-02-26T11:04:55.002Z,63.10
2019-02-26T11:05:59.331Z,60.60
2019-02-26T11:07:08.588Z,61.80
2019-02-26T11:08:12.057Z,61.30
2019-02-26T11:09:18.323Z,61.20
2019-02-26T11:10:25.198Z,59.90
2019-02-26T11:11:32.796Z,58.70
2019-02-26T11:12:38.284Z,57.40
2019-02-26T11:13:47.008Z,58.10
2019-02-26T11:14:50.584Z,58.60
2019-02-26T11:15:57.334Z,58.50
2019-02-26T11:17:04.151Z,57.20
2019-02-26T11:18:11.812Z,57.10
2019-02-26T11:19:16.370Z,57.20
2019-02-26T11:20:22.377Z,56.70
2019-02-26T11:21:28.580Z,56.90
2019-02-26T11:22:34.065Z,55.80
2019-02-26T11:23:41.457Z,54.70
2019-02-26T11:24:48.374Z,54.10
2019-02-26T11:25:53.323Z,54.10
2019-02-26T11:26:58.483Z,52.80
2019-02-26T11:28:05.611Z,53.90
2019-02-26T11:29:10.660Z,51.30
2019-02-26T11:30:35.513Z,50.50
2019-02-26T11:31:41.856Z,51.20
2019-02-26T11:33:05.864Z,51.80
2019-02-26T11:34:36.281Z,51.70
2019-02-26T11:35:43.575Z,51.00
2019-02-26T11:36:48.363Z,51.90
2019-02-26T11:37:55.380Z,50.90
2019-02-26T11:39:02.241Z,50.50
2019-02-26T11:40:11.330Z,50.40
2019-02-26T11:41:16.798Z,49.10
2019-02-26T11:42:24.165Z,46.50
2019-02-26T11:43:29.211Z,45.70
2019-02-26T11:44:34.697Z,45.90
2019-02-26T11:45:41.818Z,46.60
2019-02-26T11:46:49.350Z,46.30
2019-02-26T11:47:58.073Z,47.10
2019-02-26T11:49:05.073Z,47.30
2019-02-26T11:50:13.644Z,48.00
2019-02-26T11:51:20.041Z,48.20
2019-02-26T11:52:25.564Z,46.80
2019-02-26T11:53:30.881Z,46.50
2019-02-26T11:54:39.694Z,46.30
2019-02-26T11:55:44.498Z,46.60
2019-02-26T11:56:52.383Z,46.00
2019-02-26T11:57:56.778Z,45.90
2019-02-26T11:59:02.047Z,45.70
2019-02-26T12:00:10.515Z,46.80
2019-02-26T12:01:17.252Z,45.40
2019-02-26T12:02:26.697Z,45.40
2019-02-26T12:03:31.070Z,45.50
2019-02-26T12:04:36.530Z,45.40
2019-02-26T12:05:41.947Z,46.10
2019-02-26T12:06:48.786Z,46.30
2019-02-26T12:07:56.264Z,46.60
2019-02-26T12:09:03.036Z,47.20
2019-02-26T12:10:12.840Z,46.80
2019-02-26T12:11:20.319Z,44.50
2019-02-26T12:12:25.726Z,43.40
2019-02-26T12:13:31.886Z,43.70
2019-02-26T12:14:38.019Z,43.60
2019-02-26T12:15:44.134Z,43.50
2019-02-26T12:16:49.429Z,43.60
2019-02-26T12:17:56.402Z,44.00
2019-02-26T12:19:04.073Z,44.60
2019-02-26T12:20:15.261Z,45.30
2019-02-26T12:21:25.079Z,44.90
2019-02-26T12:22:29.921Z,45.00
2019-02-26T12:23:39.181Z,43.70
2019-02-26T12:24:44.548Z,43.70
2019-02-26T12:25:52.518Z,43.60
2019-02-26T12:27:13.332Z,43.40
2019-02-26T12:28:28.372Z,43.00
2019-02-26T12:29:34.373Z,42.70
2019-02-26T12:30:43.757Z,42.20
2019-02-26T12:31:50.114Z,42.10
2019-02-26T12:32:55.204Z,42.00
2019-02-26T12:34:00.763Z,41.40
2019-02-26T12:35:14.761Z,41.10
2019-02-26T12:36:32.674Z,43.00
2019-02-26T12:37:53.879Z,42.90
2019-02-26T12:39:02.524Z,42.00
2019-02-26T12:40:15.927Z,41.90
2019-02-26T12:41:23.317Z,42.00
2019-02-26T12:42:33.045Z,42.60
2019-02-26T12:43:58.721Z,41.90
2019-02-26T12:45:15.567Z,42.30
2019-02-26T12:46:21.737Z,41.60
2019-02-26T12:47:42.891Z,41.90
2019-02-26T12:49:02.750Z,41.20
2019-02-26T12:50:18.284Z,41.60
2019-02-26T12:51:40.619Z,40.90
2019-02-26T12:52:51.661Z,40.50
2019-02-26T12:54:13.699Z,40.80
2019-02-26T12:55:38.215Z,39.50
2019-02-26T12:57:04.898Z,39.80
2019-02-26T12:58:18.731Z,40.10
2019-02-26T12:59:35.023Z,39.50
2019-02-26T13:00:48.685Z,39.30
2019-02-26T13:01:53.877Z,40.20
2019-02-26T13:02:59.308Z,39.60
2019-02-26T13:04:13.100Z,40.00
2019-02-26T13:05:23.253Z,40.00
2019-02-26T13:06:42.129Z,40.10
2019-02-26T13:07:56.847Z,39.70
2019-02-26T13:09:14.135Z,39.20
2019-02-26T13:10:27.735Z,38.20
2019-02-26T13:11:36.760Z,37.70
2019-02-26T13:12:54.007Z,38.10
2019-02-26T13:14:03.807Z,38.50
2019-02-26T13:15:19.184Z,37.50
2019-02-26T13:17:54.266Z,38.60
2019-02-26T13:19:08.924Z,35.00
2019-02-26T13:20:20.714Z,33.10
2019-02-26T13:21:34.791Z,35.30
2019-02-26T13:22:45.647Z,36.20
2019-02-26T13:23:50.607Z,36.50
2019-02-26T13:25:15.109Z,36.70
2019-02-26T13:26:24.416Z,36.40
2019-02-26T13:27:31.792Z,33.00
2019-02-26T13:28:46.764Z,32.80
2019-02-26T13:29:55.197Z,33.50
2019-02-26T13:31:02.323Z,34.50
2019-02-26T13:32:07.918Z,34.60
2019-02-26T13:33:13.786Z,33.80
2019-02-26T13:34:19.453Z,35.50
2019-02-26T13:35:24.928Z,35.80
2019-02-26T13:36:30.221Z,36.20
2019-02-26T13:37:40.360Z,36.40
2019-02-26T13:39:52.256Z,36.50
2019-02-26T13:41:19.873Z,35.90
2019-02-26T13:42:13.984Z,35.60
2019-02-26T13:43:17.210Z,36.50
2019-02-26T13:44:22.582Z,36.00
2019-02-26T13:45:28.272Z,35.00
2019-02-26T13:46:33.667Z,34.70
2019-02-26T13:47:39.081Z,34.10
2019-02-26T13:48:44.389Z,35.20
2019-02-26T13:49:49.706Z,35.30
2019-02-26T13:50:55.215Z,35.00
2019-02-26T13:52:00.450Z,34.90
2019-02-26T13:53:05.792Z,35.20
2019-02-26T13:54:11.030Z,35.20
2019-02-26T13:55:16.308Z,37.90
2019-02-26T13:56:21.773Z,39.00
2019-02-26T13:57:29.989Z,39.80
2019-02-26T13:58:35.434Z,39.30
2019-02-26T13:59:40.581Z,39.80
2019-02-26T14:00:45.884Z,39.90
2019-02-26T14:01:52.605Z,40.20
2019-02-26T14:02:58.071Z,39.60
2019-02-26T14:04:06.131Z,40.00
2019-02-26T14:05:11.607Z,39.80
2019-02-26T14:06:17.053Z,39.70
2019-02-26T14:07:22.475Z,39.70
2019-02-26T14:08:27.758Z,39.70
2019-02-26T14:09:33.133Z,40.00
2019-02-26T14:10:38.397Z,39.00
2019-02-26T14:11:43.732Z,39.50
2019-02-26T14:12:49.131Z,40.10
2019-02-26T14:13:54.485Z,39.90
2019-02-26T14:14:59.781Z,39.60
2019-02-26T14:16:04.966Z,39.80
2019-02-26T14:17:10.232Z,40.60
2019-02-26T14:18:15.550Z,39.80
2019-02-26T14:19:20.937Z,40.00
2019-02-26T14:20:26.322Z,40.10
2019-02-26T14:21:31.625Z,39.60
2019-02-26T14:22:36.910Z,39.70
2019-02-26T14:23:44.991Z,39.20
2019-02-26T14:24:51.426Z,39.30
2019-02-26T14:25:56.760Z,39.40
2019-02-26T14:27:03.242Z,40.30
2019-02-26T14:28:08.558Z,39.80
2019-02-26T14:29:13.883Z,39.60
2019-02-26T14:30:19.116Z,39.60
2019-02-26T14:31:24.314Z,39.40
2019-02-26T14:32:29.708Z,39.20
2019-02-26T14:33:35.407Z,39.80
2019-02-26T14:34:41.704Z,40.50
2019-02-26T14:35:46.988Z,40.90
2019-02-26T14:36:52.294Z,40.70
2019-02-26T14:37:59.530Z,40.90
2019-02-26T14:39:06.328Z,40.50
2019-02-26T14:40:13.656Z,40.40
2019-02-26T14:41:18.838Z,40.40
2019-02-26T14:42:24.212Z,41.10
2019-02-26T14:43:29.680Z,41.80
2019-02-26T14:44:35.135Z,41.80
2019-02-26T14:45:40.702Z,41.40
2019-02-26T14:46:50.190Z,41.90
2019-02-26T14:47:58.588Z,41.80
2019-02-26T14:49:04.255Z,41.30